Time;durP1;ratioP1;P1;durP2;ratioP2;P2;SDS_P1;SDS_P2;PMS_P1;PMS_P2;Temp;Humidity;BMP_temperature;BMP_pressure;BME280_temperature;BME280_humidity;BME280_pressure;Samples;Min_cycle;Max_cycle;Signal;HPM_P1;HPM_P2
2023/04/22 00:01:25;;;;;;;4.20;3.23;;;15.10;96.00;;;;;;4975381;28;20423;-82
2023/04/22 00:03:54;;;;;;;4.20;3.20;;;15.10;96.00;;;;;;4983428;28;20495;-82
2023/04/22 00:06:22;;;;;;;5.30;3.80;;;15.10;96.00;;;;;;5008359;28;20570;-82
2023/04/22 00:08:51;;;;;;;5.03;3.47;;;15.10;95.90;;;;;;5014588;28;20507;-82
2023/04/22 00:11:19;;;;;;;4.17;3.50;;;15.10;95.90;;;;;;5014490;28;20531;-82
2023/04/22 00:13:47;;;;;;;3.50;3.13;;;15.10;95.90;;;;;;4993710;28;20910;-83
2023/04/22 00:16:13;;;;;;;3.90;3.30;;;15.10;95.90;;;;;;4978331;28;20465;-82
2023/04/22 00:18:39;;;;;;;4.07;3.37;;;15.00;95.90;;;;;;4997026;28;20436;-82
2023/04/22 00:21:07;;;;;;;3.27;2.93;;;15.00;95.90;;;;;;4981637;28;20421;-82
2023/04/22 00:23:33;;;;;;;4.43;3.60;;;15.00;95.90;;;;;;5013765;28;20497;-82
2023/04/22 00:26:02;;;;;;;4.40;3.83;;;15.00;95.90;;;;;;4994775;28;20555;-81
2023/04/22 00:28:28;;;;;;;3.80;3.30;;;15.00;95.90;;;;;;5010959;28;20201;-81
2023/04/22 00:30:54;;;;;;;3.87;3.43;;;15.00;95.90;;;;;;4997681;28;20930;-81
2023/04/22 00:33:24;;;;;;;3.40;3.10;;;15.00;95.90;;;;;;5014869;28;20431;-82
2023/04/22 00:35:53;;;;;;;3.70;3.00;;;15.00;95.90;;;;;;4995682;28;20435;-82
2023/04/22 00:38:19;;;;;;;4.27;3.60;;;14.90;95.90;;;;;;4978601;28;20474;-82
2023/04/22 00:40:47;;;;;;;4.23;3.70;;;14.90;95.80;;;;;;5010894;28;20444;-82
2023/04/22 00:43:15;;;;;;;4.50;3.83;;;14.90;95.80;;;;;;4962245;28;20444;-82
2023/04/22 00:45:43;;;;;;;5.33;3.83;;;14.90;95.90;;;;;;4978477;28;20567;-82
2023/04/22 00:48:10;;;;;;;4.90;4.27;;;14.90;95.90;;;;;;4995137;28;20409;-81
2023/04/22 00:50:36;;;;;;;4.70;3.60;;;14.90;95.90;;;;;;4994000;28;20454;-82
2023/04/22 00:53:04;;;;;;;4.57;4.00;;;14.90;95.90;;;;;;5007378;28;20450;-81
2023/04/22 00:55:30;;;;;;;4.13;3.70;;;14.90;96.20;;;;;;4990813;28;20425;-82
2023/04/22 00:57:59;;;;;;;4.37;3.87;;;14.80;95.80;;;;;;4938207;29;20430;-83
2023/04/22 01:00:26;;;;;;;5.40;3.90;;;14.90;95.90;;;;;;4922658;28;20575;-82
2023/04/22 01:02:56;;;;;;;5.67;3.60;;;14.80;95.90;;;;;;4992876;28;20508;-81
2023/04/22 01:05:30;;;;;;;4.27;3.70;;;14.80;95.90;;;;;;4992719;28;20477;-81
2023/04/22 01:07:59;;;;;;;4.70;3.73;;;14.80;95.90;;;;;;4957532;28;20453;-82
2023/04/22 01:10:27;;;;;;;5.03;3.70;;;14.80;95.90;;;;;;4973620;28;20446;-82
2023/04/22 01:12:53;;;;;;;4.93;3.90;;;14.80;95.90;;;;;;4970648;28;20453;-82
2023/04/22 01:15:22;;;;;;;4.20;3.80;;;14.80;95.90;;;;;;4976757;28;20918;-82
2023/04/22 01:17:51;;;;;;;5.90;5.30;;;14.80;95.90;;;;;;4961228;28;20430;-82
2023/04/22 01:20:21;;;;;;;5.43;4.13;;;14.80;95.90;;;;;;4959657;28;20934;-82
2023/04/22 01:22:49;;;;;;;7.87;4.00;;;14.70;96.00;;;;;;4976473;28;20751;-83
2023/04/22 01:25:15;;;;;;;7.20;4.40;;;14.70;96.10;;;;;;4962699;28;20835;-83
2023/04/22 01:27:41;;;;;;;4.37;3.97;;;14.60;96.20;;;;;;4973572;28;20748;-83
2023/04/22 01:30:08;;;;;;;5.13;4.57;;;14.60;96.40;;;;;;5011306;28;20414;-83
2023/04/22 01:32:38;;;;;;;7.47;4.20;;;14.60;96.50;;;;;;5004294;28;20450;-82
2023/04/22 01:35:05;;;;;;;8.70;4.83;;;14.70;96.60;;;;;;5007001;28;20442;-82
2023/04/22 01:37:31;;;;;;;4.30;3.90;;;14.60;96.60;;;;;;4966449;28;20461;-82
2023/04/22 01:40:21;;;;;;;5.77;4.10;;;14.60;96.70;;;;;;5004480;28;20522;-81
2023/04/22 01:42:50;;;;;;;4.90;4.20;;;14.60;96.70;;;;;;4999480;28;20435;-81
2023/04/22 01:45:16;;;;;;;4.70;3.87;;;14.60;96.70;;;;;;5013060;28;20476;-82
2023/04/22 01:47:43;;;;;;;5.17;4.17;;;14.60;96.70;;;;;;5030124;28;20420;-81
2023/04/22 01:50:10;;;;;;;4.83;3.90;;;14.60;96.70;;;;;;5012714;28;20434;-83
2023/04/22 01:52:38;;;;;;;5.00;4.47;;;14.50;96.70;;;;;;5017629;28;20445;-82
2023/04/22 01:55:04;;;;;;;5.97;4.50;;;14.50;96.70;;;;;;5001769;28;20467;-81
2023/04/22 01:57:31;;;;;;;4.70;4.07;;;14.60;96.80;;;;;;5029691;28;20442;-83
2023/04/22 01:59:57;;;;;;;6.47;4.20;;;14.50;96.80;;;;;;5025721;28;20543;-82
2023/04/22 02:02:26;;;;;;;4.33;3.93;;;14.50;96.90;;;;;;5004659;28;20577;-81
2023/04/22 02:04:52;;;;;;;6.70;4.10;;;14.50;97.00;;;;;;5016468;28;20480;-82
2023/04/22 02:07:18;;;;;;;5.17;4.20;;;14.50;97.00;;;;;;5015961;28;20511;-82
2023/04/22 02:09:43;;;;;;;4.83;4.10;;;14.50;97.00;;;;;;5032876;28;20874;-81
2023/04/22 02:12:14;;;;;;;5.60;4.70;;;14.50;97.10;;;;;;5012470;28;20425;-82
2023/04/22 02:14:42;;;;;;;6.90;4.93;;;14.50;97.10;;;;;;4977255;28;20413;-82
2023/04/22 02:17:12;;;;;;;4.90;4.13;;;14.50;97.10;;;;;;4978196;28;20437;-82
2023/04/22 02:19:38;;;;;;;5.00;4.37;;;14.50;97.10;;;;;;5009589;28;20498;-81
2023/04/22 02:22:04;;;;;;;4.57;3.83;;;14.50;97.00;;;;;;5003350;28;20585;-81
2023/04/22 02:24:32;;;;;;;4.50;4.10;;;14.50;97.10;;;;;;4981809;28;20462;-82
2023/04/22 02:26:59;;;;;;;4.40;4.00;;;14.40;97.00;;;;;;5016186;28;20205;-82
2023/04/22 02:29:25;;;;;;;5.77;4.43;;;14.40;97.00;;;;;;4995428;28;20425;-81
2023/04/22 02:31:50;;;;;;;4.43;3.73;;;14.40;97.10;;;;;;5031212;28;20434;-82
2023/04/22 02:34:16;;;;;;;5.00;4.20;;;14.40;97.20;;;;;;5031972;28;20930;-82
2023/04/22 02:36:44;;;;;;;4.93;4.17;;;14.40;97.20;;;;;;5016912;28;20412;-82
2023/04/22 02:39:10;;;;;;;5.10;4.60;;;14.40;97.20;;;;;;4997370;28;20247;-82
2023/04/22 02:41:37;;;;;;;5.40;4.30;;;14.40;97.20;;;;;;5014634;28;20419;-82
2023/04/22 02:44:02;;;;;;;4.80;4.40;;;14.40;97.20;;;;;;5032466;28;20435;-82
2023/04/22 02:46:30;;;;;;;6.47;4.80;;;14.40;97.20;;;;;;4999596;28;20213;-81
2023/04/22 02:48:56;;;;;;;6.47;4.83;;;14.30;97.20;;;;;;5000467;28;20777;-82
2023/04/22 02:51:22;;;;;;;6.33;4.70;;;14.40;97.20;;;;;;5010011;28;20437;-81
2023/04/22 02:53:50;;;;;;;4.73;4.23;;;14.30;97.20;;;;;;5031981;28;20416;-82
2023/04/22 02:56:16;;;;;;;6.47;4.90;;;14.30;97.20;;;;;;4998543;28;20903;-82
2023/04/22 02:58:44;;;;;;;6.37;4.17;;;14.40;97.30;;;;;;5031775;28;20441;-82
2023/04/22 03:01:13;;;;;;;5.73;4.57;;;14.30;97.20;;;;;;5003681;28;20249;-83
2023/04/22 03:03:39;;;;;;;4.60;4.20;;;14.30;97.20;;;;;;4995998;28;20437;-82
2023/04/22 03:06:07;;;;;;;4.73;4.23;;;14.30;97.20;;;;;;4992455;28;20470;-81
2023/04/22 03:08:33;;;;;;;5.40;4.37;;;14.30;97.30;;;;;;4995643;28;20495;-82
2023/04/22 03:10:59;;;;;;;9.93;4.53;;;14.30;97.30;;;;;;5008877;28;20250;-82
2023/04/22 03:13:25;;;;;;;6.07;3.97;;;14.30;97.30;;;;;;5009099;28;20438;-82
2023/04/22 03:15:53;;;;;;;7.97;4.17;;;14.30;97.40;;;;;;5008561;28;20512;-82
2023/04/22 03:18:21;;;;;;;5.40;3.63;;;14.30;97.40;;;;;;5027003;28;20416;-84
2023/04/22 03:20:50;;;;;;;4.60;4.20;;;14.20;97.30;;;;;;5015247;28;20507;-82
2023/04/22 03:23:19;;;;;;;4.93;4.33;;;14.20;97.40;;;;;;4979470;28;20426;-82
2023/04/22 03:25:45;;;;;;;4.10;3.70;;;14.20;97.40;;;;;;4992132;28;20468;-82
2023/04/22 03:28:11;;;;;;;4.77;4.30;;;14.20;97.30;;;;;;5008428;28;20414;-82
2023/04/22 03:30:36;;;;;;;5.20;4.70;;;14.30;97.40;;;;;;5010843;28;20412;-82
2023/04/22 03:33:05;;;;;;;3.87;3.30;;;14.20;97.40;;;;;;5015039;28;20818;-82
2023/04/22 03:35:40;;;;;;;4.70;4.20;;;14.20;97.40;;;;;;5005343;28;20826;-81
2023/04/22 03:38:08;;;;;;;4.53;4.13;;;14.20;97.40;;;;;;4998287;28;20774;-82
2023/04/22 03:40:37;;;;;;;5.43;4.00;;;14.20;97.30;;;;;;4989409;28;20418;-81
2023/04/22 03:43:11;;;;;;;6.03;4.40;;;14.20;97.30;;;;;;4995136;28;20429;-81
2023/04/22 03:45:37;;;;;;;6.10;4.57;;;14.20;97.70;;;;;;5028263;28;20563;-82
2023/04/22 03:48:17;;;;;;;4.10;3.50;;;14.20;97.40;;;;;;5031160;28;20872;-82
2023/04/22 03:50:47;;;;;;;4.50;3.60;;;14.20;97.40;;;;;;5013499;28;20920;-82
2023/04/22 03:53:14;;;;;;;5.10;3.90;;;14.10;97.40;;;;;;5021241;28;20504;-82
2023/04/22 03:55:40;;;;;;;4.60;4.03;;;14.10;97.40;;;;;;4975624;28;20527;-82
2023/04/22 03:58:06;;;;;;;5.50;3.93;;;14.20;97.40;;;;;;4997488;28;20429;-81
2023/04/22 04:00:35;;;;;;;4.60;4.00;;;14.10;97.40;;;;;;4991686;28;20520;-82
2023/04/22 04:03:07;;;;;;;4.63;3.23;;;14.10;97.40;;;;;;5007665;28;20473;-81
2023/04/22 04:05:36;;;;;;;3.67;3.37;;;14.10;97.40;;;;;;5007456;28;20493;-82
2023/04/22 04:08:02;;;;;;;3.50;3.20;;;14.10;97.40;;;;;;5001106;28;20424;-81
2023/04/22 04:10:28;;;;;;;6.20;3.77;;;14.10;97.40;;;;;;5013146;28;20543;-81
2023/04/22 04:12:59;;;;;;;4.50;3.73;;;14.10;97.40;;;;;;5010623;28;20454;-82
2023/04/22 04:15:35;;;;;;;5.27;3.77;;;14.10;97.50;;;;;;4979136;28;20440;-82
2023/04/22 04:18:01;;;;;;;4.33;3.70;;;14.10;97.50;;;;;;4994871;28;20478;-82
2023/04/22 04:20:32;;;;;;;3.63;3.30;;;14.10;97.50;;;;;;5003705;28;20432;-83
2023/04/22 04:22:58;;;;;;;3.87;3.47;;;14.10;97.50;;;;;;5011845;28;20498;-82
2023/04/22 04:25:28;;;;;;;3.57;3.13;;;14.10;97.50;;;;;;4994362;28;20458;-82
2023/04/22 04:27:54;;;;;;;3.80;3.30;;;14.00;97.40;;;;;;4995922;28;20450;-82
2023/04/22 04:30:22;;;;;;;3.30;3.00;;;14.00;97.40;;;;;;4981578;28;20481;-82
2023/04/22 04:32:53;;;;;;;6.60;3.20;;;14.00;97.40;;;;;;4975254;28;20419;-82
2023/04/22 04:35:19;;;;;;;3.90;3.47;;;14.00;97.40;;;;;;4991162;28;20426;-82
2023/04/22 04:37:54;;;;;;;3.70;3.33;;;14.00;97.40;;;;;;4967496;28;20460;-82
2023/04/22 04:40:23;;;;;;;4.60;3.70;;;14.00;97.30;;;;;;5007346;28;20445;-82
2023/04/22 04:43:11;;;;;;;3.67;3.37;;;14.00;97.40;;;;;;5028852;28;20435;-82
2023/04/22 04:45:49;;;;;;;3.80;3.37;;;14.00;97.40;;;;;;5013740;28;20829;-82
2023/04/22 04:48:23;;;;;;;5.43;3.27;;;14.00;97.40;;;;;;5013049;28;20828;-82
2023/04/22 04:50:55;;;;;;;3.53;3.23;;;14.00;97.50;;;;;;5010410;28;20436;-82
2023/04/22 04:53:23;;;;;;;3.40;3.10;;;14.00;97.50;;;;;;4989677;28;20439;-82
2023/04/22 04:55:52;;;;;;;4.07;3.67;;;14.00;97.50;;;;;;4994125;28;20425;-82
2023/04/22 04:58:22;;;;;;;3.90;3.30;;;14.00;97.50;;;;;;4978899;28;20789;-82
2023/04/22 05:01:00;;;;;;;3.50;3.20;;;14.00;97.60;;;;;;4994074;28;20904;-82
2023/04/22 05:03:28;;;;;;;5.00;3.60;;;13.90;97.50;;;;;;5012015;28;20522;-82
2023/04/22 05:05:55;;;;;;;3.10;2.80;;;13.90;97.50;;;;;;4974415;28;20563;-82
2023/04/22 05:08:21;;;;;;;4.23;2.87;;;14.00;97.60;;;;;;5024071;28;20479;-82
2023/04/22 05:10:49;;;;;;;3.20;2.90;;;14.00;97.70;;;;;;5029976;28;20415;-82
2023/04/22 05:13:21;;;;;;;4.77;3.20;;;13.90;97.60;;;;;;5013553;28;20428;-82
2023/04/22 05:15:50;;;;;;;4.67;3.67;;;13.90;97.60;;;;;;5013250;28;20444;-81
2023/04/22 05:18:17;;;;;;;3.80;3.50;;;13.90;97.70;;;;;;5013642;28;20574;-82
2023/04/22 05:20:48;;;;;;;3.70;3.40;;;13.90;97.70;;;;;;4994535;28;20453;-83
2023/04/22 05:23:20;;;;;;;4.30;3.60;;;13.90;97.70;;;;;;5011723;28;20454;-82
2023/04/22 05:25:50;;;;;;;3.80;3.23;;;13.90;97.70;;;;;;5033321;28;20561;-82
2023/04/22 05:28:16;;;;;;;5.20;3.57;;;13.90;97.70;;;;;;4994558;28;20424;-83
2023/04/22 05:30:53;;;;;;;3.97;3.40;;;13.90;97.80;;;;;;4983253;28;20502;-84
2023/04/22 05:33:23;;;;;;;3.27;2.97;;;13.90;97.80;;;;;;5002235;28;20444;-82
2023/04/22 05:35:51;;;;;;;4.33;3.27;;;13.90;98.00;;;;;;5008574;28;20450;-82
2023/04/22 05:38:19;;;;;;;3.90;3.50;;;13.90;98.10;;;;;;4984909;28;20438;-82
2023/04/22 05:40:50;;;;;;;3.80;3.43;;;13.90;98.10;;;;;;5000480;28;20412;-83
2023/04/22 05:43:18;;;;;;;3.53;3.23;;;13.90;98.00;;;;;;4997370;28;20504;-82
2023/04/22 05:45:51;;;;;;;3.73;3.20;;;13.90;97.90;;;;;;5013710;28;20477;-82
2023/04/22 05:48:22;;;;;;;3.97;2.97;;;13.90;97.80;;;;;;4977674;28;20400;-82
2023/04/22 05:50:57;;;;;;;3.40;3.10;;;13.90;97.90;;;;;;4980831;28;20419;-83
2023/04/22 05:53:26;;;;;;;3.13;2.83;;;13.90;98.00;;;;;;4984785;28;20560;-83
2023/04/22 05:55:52;;;;;;;3.50;3.20;;;13.80;98.00;;;;;;5009007;28;20448;-83
2023/04/22 05:58:27;;;;;;;3.40;3.10;;;13.90;98.20;;;;;;4997179;28;20502;-84
2023/04/22 06:00:56;;;;;;;2.87;2.67;;;13.90;98.20;;;;;;5005499;28;20455;-82
2023/04/22 06:03:45;;;;;;;3.20;2.90;;;13.90;98.10;;;;;;5009146;28;20447;-83
2023/04/22 06:06:11;;;;;;;3.33;3.03;;;13.90;98.10;;;;;;4981135;28;20463;-82
2023/04/22 06:08:38;;;;;;;4.20;2.67;;;13.80;98.10;;;;;;5013684;28;20441;-83
2023/04/22 06:11:06;;;;;;;4.47;4.03;;;13.80;98.00;;;;;;5014297;28;20425;-82
2023/04/22 06:13:34;;;;;;;3.83;3.50;;;13.80;97.80;;;;;;4996251;28;20441;-82
2023/04/22 06:16:00;;;;;;;2.80;2.60;;;13.80;97.70;;;;;;5011403;28;20546;-83
2023/04/22 06:18:28;;;;;;;3.00;2.80;;;13.80;97.70;;;;;;4995759;28;20180;-82
2023/04/22 06:20:59;;;;;;;3.50;3.17;;;13.90;97.70;;;;;;4995101;28;21080;-83
2023/04/22 06:23:27;;;;;;;4.00;3.10;;;13.90;97.70;;;;;;4992469;28;20467;-82
2023/04/22 06:26:00;;;;;;;3.30;3.00;;;13.80;97.70;;;;;;4975904;28;20472;-82
2023/04/22 06:28:29;;;;;;;4.70;3.50;;;13.90;97.80;;;;;;5011468;28;20493;-82
2023/04/22 06:31:00;;;;;;;3.17;2.87;;;13.90;97.80;;;;;;4987915;28;20420;-81
2023/04/22 06:33:29;;;;;;;2.87;2.67;;;13.80;97.70;;;;;;5015498;28;20478;-82
2023/04/22 06:35:55;;;;;;;3.50;3.20;;;13.90;97.70;;;;;;5030970;28;20812;-81
2023/04/22 06:38:20;;;;;;;3.40;3.10;;;13.90;97.70;;;;;;4996117;28;20882;-83
2023/04/22 06:41:09;;;;;;;3.07;2.83;;;13.90;97.60;;;;;;4996472;28;20443;-84
2023/04/22 06:43:38;;;;;;;3.00;2.80;;;13.90;97.60;;;;;;5011622;28;20487;-82
2023/04/22 06:46:09;;;;;;;3.30;3.00;;;13.90;97.70;;;;;;5002638;28;20489;-81
2023/04/22 06:49:00;;;;;;;3.50;2.83;;;13.90;97.70;;;;;;4989228;28;20433;-83
2023/04/22 06:51:46;;;;;;;3.03;2.63;;;13.90;97.80;;;;;;4995316;28;21118;-83
2023/04/22 06:54:14;;;;;;;4.30;2.90;;;13.90;97.80;;;;;;4979161;28;20494;-83
2023/04/22 06:56:43;;;;;;;2.83;2.60;;;13.90;97.80;;;;;;5011601;28;20737;-83
2023/04/22 06:59:11;;;;;;;3.20;2.90;;;13.90;97.80;;;;;;4996764;28;20456;-82
2023/04/22 07:01:37;;;;;;;3.10;2.80;;;14.00;97.80;;;;;;4979952;28;20440;-83
2023/04/22 07:04:06;;;;;;;3.47;3.23;;;14.00;97.80;;;;;;5011744;28;20754;-82
2023/04/22 07:06:32;;;;;;;7.23;3.10;;;14.00;97.80;;;;;;4995656;28;20474;-83
2023/04/22 07:09:02;;;;;;;3.73;3.43;;;14.00;97.80;;;;;;4984491;28;20448;-84
2023/04/22 07:11:30;;;;;;;3.80;2.83;;;14.00;97.90;;;;;;5015384;28;20417;-83
2023/04/22 07:14:06;;;;;;;5.10;2.67;;;14.00;97.80;;;;;;5009585;28;20435;-84
2023/04/22 07:16:32;;;;;;;3.40;3.00;;;14.10;97.90;;;;;;4996533;28;20512;-84
2023/04/22 07:19:04;;;;;;;3.47;2.90;;;14.10;97.80;;;;;;5008184;28;20438;-83
2023/04/22 07:21:31;;;;;;;2.50;2.30;;;14.10;97.80;;;;;;4976398;28;20517;-82
2023/04/22 07:23:57;;;;;;;3.20;2.90;;;14.10;97.70;;;;;;4982048;28;20471;-85
2023/04/22 07:26:23;;;;;;;3.13;2.83;;;14.10;97.80;;;;;;4995254;28;20579;-83
2023/04/22 07:28:49;;;;;;;3.77;2.70;;;14.20;97.80;;;;;;4999352;28;20522;-84
2023/04/22 07:31:15;;;;;;;2.90;2.43;;;14.20;97.80;;;;;;5015824;28;20416;-83
2023/04/22 07:33:41;;;;;;;2.73;2.53;;;14.20;97.70;;;;;;5013221;28;20912;-83
2023/04/22 07:36:12;;;;;;;4.07;3.00;;;14.20;97.70;;;;;;5011373;28;20483;-84
2023/04/22 07:38:38;;;;;;;5.23;2.63;;;14.20;97.60;;;;;;4996979;28;20440;-84
2023/04/22 07:41:04;;;;;;;2.63;2.43;;;14.30;97.70;;;;;;5006424;28;20763;-84
2023/04/22 07:43:32;;;;;;;2.93;2.73;;;14.30;97.60;;;;;;5010608;28;20917;-84
2023/04/22 07:46:01;;;;;;;4.00;2.80;;;14.30;97.70;;;;;;5013815;28;20496;-84
2023/04/22 07:48:27;;;;;;;2.93;2.73;;;14.30;97.70;;;;;;5005189;28;20456;-84
2023/04/22 07:50:57;;;;;;;3.03;2.73;;;14.30;97.70;;;;;;5015145;28;20420;-84
2023/04/22 07:53:25;;;;;;;3.70;3.20;;;14.30;97.60;;;;;;5005839;28;20436;-85
2023/04/22 07:55:51;;;;;;;3.50;2.70;;;14.30;97.50;;;;;;5011453;28;20798;-84
2023/04/22 07:58:17;;;;;;;4.27;2.80;;;14.30;97.50;;;;;;5013516;28;20421;-84
2023/04/22 08:00:45;;;;;;;3.97;2.90;;;14.40;97.60;;;;;;5012846;28;20263;-84
2023/04/22 08:03:13;;;;;;;3.20;2.83;;;14.40;97.50;;;;;;5011486;28;20188;-84
2023/04/22 08:05:39;;;;;;;4.43;3.30;;;14.40;97.50;;;;;;4994916;28;20819;-84
2023/04/22 08:08:09;;;;;;;3.60;3.27;;;14.40;97.50;;;;;;4995736;28;20468;-84
2023/04/22 08:10:38;;;;;;;3.67;3.27;;;14.40;97.50;;;;;;5009344;28;20512;-84
2023/04/22 08:13:04;;;;;;;2.70;2.50;;;14.50;97.50;;;;;;5002413;28;20440;-84
2023/04/22 08:15:35;;;;;;;3.67;2.43;;;14.50;97.60;;;;;;4995750;28;20516;-84
2023/04/22 08:18:01;;;;;;;2.90;2.63;;;14.50;97.50;;;;;;4994431;28;20507;-83
2023/04/22 08:20:31;;;;;;;5.03;3.10;;;14.50;97.50;;;;;;4978088;28;20473;-83
2023/04/22 08:22:59;;;;;;;3.20;2.90;;;14.50;97.60;;;;;;5007466;28;20493;-83
2023/04/22 08:25:26;;;;;;;3.43;3.13;;;14.50;97.60;;;;;;4999347;28;20466;-83
2023/04/22 08:27:52;;;;;;;3.53;2.80;;;14.50;98.00;;;;;;4990068;28;20457;-83
2023/04/22 08:30:21;;;;;;;3.10;2.90;;;14.60;97.70;;;;;;5013590;28;20817;-83
2023/04/22 08:32:47;;;;;;;2.83;2.63;;;14.60;97.70;;;;;;5003212;28;20430;-83
2023/04/22 08:35:15;;;;;;;3.40;2.77;;;14.60;97.70;;;;;;5002787;28;20444;-82
2023/04/22 08:37:43;;;;;;;3.57;3.03;;;14.60;97.70;;;;;;5008300;28;20434;-83
2023/04/22 08:40:39;;;;;;;3.67;3.30;;;14.60;97.70;;;;;;4997485;28;20428;-81
2023/04/22 08:43:06;;;;;;;4.47;3.40;;;14.70;97.70;;;;;;4990713;28;20449;-85
2023/04/22 08:45:32;;;;;;;3.10;2.90;;;14.70;97.70;;;;;;5008933;28;20458;-84
2023/04/22 08:47:59;;;;;;;3.57;2.63;;;14.70;97.70;;;;;;4989697;28;20431;-84
2023/04/22 08:50:25;;;;;;;3.10;2.80;;;14.80;98.20;;;;;;4996684;28;20445;-83
2023/04/22 08:52:51;;;;;;;3.37;3.07;;;14.80;97.80;;;;;;5003811;28;20451;-83
2023/04/22 08:55:18;;;;;;;3.67;2.87;;;14.80;97.70;;;;;;5010152;28;20470;-83
2023/04/22 08:57:44;;;;;;;3.53;2.70;;;14.90;97.80;;;;;;4974727;28;20423;-83
2023/04/22 09:00:14;;;;;;;3.43;2.93;;;14.80;97.70;;;;;;4992440;28;20763;-84
2023/04/22 09:02:50;;;;;;;3.97;2.83;;;14.90;97.70;;;;;;4978754;28;20449;-83
2023/04/22 09:05:21;;;;;;;3.20;2.90;;;14.90;97.70;;;;;;4976437;28;20763;-82
2023/04/22 09:07:50;;;;;;;3.63;3.10;;;14.90;97.60;;;;;;4974764;28;20448;-83
2023/04/22 09:10:16;;;;;;;2.77;2.57;;;15.00;97.60;;;;;;4995136;28;20452;-83
2023/04/22 09:12:42;;;;;;;3.23;2.80;;;15.00;97.60;;;;;;5013633;28;20425;-83
2023/04/22 09:15:14;;;;;;;4.07;3.07;;;15.00;97.70;;;;;;5000248;28;20452;-83
2023/04/22 09:17:44;;;;;;;3.10;2.80;;;15.10;97.70;;;;;;4997275;28;20451;-83
2023/04/22 09:20:11;;;;;;;4.13;3.03;;;15.10;97.70;;;;;;5007602;28;20478;-83
2023/04/22 09:22:45;;;;;;;2.83;2.63;;;15.10;97.70;;;;;;4995225;28;20429;-83
2023/04/22 09:25:26;;;;;;;3.77;3.33;;;15.10;97.70;;;;;;4998782;28;20975;-83
2023/04/22 09:27:56;;;;;;;2.73;2.53;;;15.20;97.70;;;;;;5001244;28;20524;-83
2023/04/22 09:30:30;;;;;;;2.80;2.60;;;15.20;98.00;;;;;;4992961;28;20435;-84
2023/04/22 09:32:58;;;;;;;2.93;2.60;;;15.20;97.60;;;;;;5006864;28;20416;-83
2023/04/22 09:35:35;;;;;;;3.40;2.93;;;15.30;97.70;;;;;;4993921;28;20422;-87
2023/04/22 09:38:13;;;;;;;4.00;2.70;;;15.30;97.60;;;;;;4998559;28;20525;-82
2023/04/22 09:40:42;;;;;;;3.03;2.80;;;15.40;97.60;;;;;;4994034;28;20573;-84
2023/04/22 09:43:09;;;;;;;3.07;2.77;;;15.40;97.50;;;;;;4978243;28;20464;-84
2023/04/22 09:45:42;;;;;;;2.80;2.60;;;15.40;97.50;;;;;;4974813;28;20472;-82
2023/04/22 09:48:13;;;;;;;4.33;3.17;;;15.50;97.50;;;;;;4989464;28;20422;-82
2023/04/22 09:50:47;;;;;;;3.07;2.87;;;15.60;97.50;;;;;;4997882;28;20452;-84
2023/04/22 09:53:18;;;;;;;2.70;2.50;;;15.60;97.50;;;;;;5001702;28;20509;-82
2023/04/22 09:55:50;;;;;;;2.80;2.60;;;15.60;97.40;;;;;;4977505;28;20427;-82
2023/04/22 09:58:26;;;;;;;4.23;3.47;;;15.60;97.30;;;;;;5009023;28;20461;-83
2023/04/22 10:00:55;;;;;;;2.90;2.70;;;15.70;97.30;;;;;;4993944;28;20425;-83
2023/04/22 10:03:21;;;;;;;3.53;2.83;;;15.70;97.20;;;;;;5001182;28;20745;-82
2023/04/22 10:05:47;;;;;;;5.00;2.90;;;15.70;97.10;;;;;;4995957;28;20460;-83
2023/04/22 10:08:18;;;;;;;2.70;2.27;;;15.80;97.10;;;;;;4997370;28;20437;-83
2023/04/22 10:11:15;;;;;;;3.37;3.07;;;15.80;97.10;;;;;;4981480;28;20462;-82
2023/04/22 10:13:41;;;;;;;3.20;2.90;;;15.80;97.10;;;;;;4998284;28;20517;-84
2023/04/22 10:16:08;;;;;;;4.47;2.93;;;15.80;97.10;;;;;;4995651;28;20485;-82
2023/04/22 10:18:46;;;;;;;2.90;2.70;;;15.90;97.30;;;;;;4978591;28;20559;-85
2023/04/22 10:21:12;;;;;;;3.70;2.97;;;15.90;97.30;;;;;;5003400;28;20421;-83
2023/04/22 10:23:45;;;;;;;3.07;2.80;;;16.00;97.40;;;;;;4997626;28;20429;-87
2023/04/22 10:26:37;;;;;;;3.27;2.97;;;16.00;97.30;;;;;;4997674;28;20462;-84
2023/04/22 10:29:09;;;;;;;3.50;3.00;;;16.00;97.40;;;;;;4998802;28;20417;-82
2023/04/22 10:31:38;;;;;;;4.17;2.60;;;16.10;97.40;;;;;;4982589;28;20760;-83
2023/04/22 10:34:14;;;;;;;3.30;3.00;;;16.10;97.40;;;;;;5016734;28;20498;-84
2023/04/22 10:36:55;;;;;;;3.63;3.30;;;16.20;97.40;;;;;;4998602;28;20453;-83
2023/04/22 10:39:22;;;;;;;3.13;2.80;;;16.20;97.40;;;;;;4980552;28;20427;-84
2023/04/22 10:41:56;;;;;;;4.47;3.20;;;16.20;97.40;;;;;;5004531;28;20426;-84
2023/04/22 10:44:26;;;;;;;5.10;3.50;;;16.30;97.40;;;;;;4980663;28;20465;-83
2023/04/22 10:46:52;;;;;;;5.63;3.23;;;16.30;97.50;;;;;;4997300;28;20461;-86
2023/04/22 10:49:22;;;;;;;3.30;3.00;;;16.40;97.60;;;;;;5002442;28;20493;-84
2023/04/22 10:51:50;;;;;;;3.33;2.73;;;16.40;97.60;;;;;;4990156;28;20184;-84
2023/04/22 10:54:25;;;;;;;3.00;2.63;;;16.50;97.50;;;;;;5011845;28;20419;-82
2023/04/22 10:57:10;;;;;;;2.93;2.63;;;16.50;97.40;;;;;;5015966;28;20437;-84
2023/04/22 10:59:50;;;;;;;3.10;2.90;;;16.50;97.40;;;;;;5004433;28;20425;-84
2023/04/22 11:02:20;;;;;;;3.20;2.70;;;16.60;97.30;;;;;;4980313;28;20411;-83
2023/04/22 11:04:53;;;;;;;4.70;3.20;;;16.60;97.30;;;;;;4996028;28;20528;-86
2023/04/22 11:07:25;;;;;;;2.80;2.43;;;16.70;97.40;;;;;;4980249;28;20430;-83
2023/04/22 11:10:06;;;;;;;4.53;2.87;;;16.80;97.40;;;;;;4996817;28;20452;-84
2023/04/22 11:12:37;;;;;;;4.20;3.40;;;16.80;97.30;;;;;;4996179;28;20835;-84
2023/04/22 11:15:12;;;;;;;4.17;3.70;;;16.80;97.20;;;;;;4992665;28;20502;-84
2023/04/22 11:18:19;;;;;;;6.93;3.37;;;16.90;97.20;;;;;;5001822;28;20445;-86
2023/04/22 11:20:48;;;;;;;3.83;2.80;;;16.90;97.10;;;;;;5000531;28;20820;-84
2023/04/22 11:23:24;;;;;;;6.60;3.23;;;17.00;97.20;;;;;;4996065;28;20437;-86
2023/04/22 11:26:01;;;;;;;2.90;2.70;;;17.00;97.20;;;;;;4982146;28;20461;-86
2023/04/22 11:28:30;;;;;;;4.97;3.10;;;17.10;97.20;;;;;;4999583;28;20445;-84
2023/04/22 11:31:09;;;;;;;2.90;2.70;;;17.10;97.10;;;;;;4984173;28;20419;-85
2023/04/22 11:33:37;;;;;;;5.63;3.30;;;17.10;97.10;;;;;;4960335;28;20506;-84
2023/04/22 11:36:03;;;;;;;4.87;3.20;;;17.20;97.00;;;;;;5001952;28;20784;-85
2023/04/22 11:38:29;;;;;;;3.93;3.17;;;17.20;96.90;;;;;;4999100;28;20430;-84
2023/04/22 11:40:58;;;;;;;3.10;2.80;;;17.20;96.90;;;;;;5004233;28;20489;-83
2023/04/22 11:43:24;;;;;;;4.83;3.33;;;17.30;96.90;;;;;;4995793;28;20428;-84
2023/04/22 11:45:51;;;;;;;4.03;2.80;;;17.30;96.90;;;;;;4996384;28;20857;-84
2023/04/22 11:48:19;;;;;;;3.80;2.80;;;17.30;96.80;;;;;;4995561;28;20432;-85
2023/04/22 11:50:47;;;;;;;4.27;2.90;;;17.30;96.80;;;;;;4991776;28;20431;-84
2023/04/22 11:53:14;;;;;;;5.17;3.60;;;17.40;96.80;;;;;;5014260;28;20430;-84
2023/04/22 11:55:41;;;;;;;3.43;3.10;;;17.40;96.80;;;;;;4995313;28;20478;-84
2023/04/22 11:58:18;;;;;;;4.10;2.97;;;17.40;96.80;;;;;;4997867;28;20516;-84
2023/04/22 12:00:53;;;;;;;3.10;2.90;;;17.40;96.80;;;;;;5016195;28;20732;-84
2023/04/22 12:03:25;;;;;;;3.17;2.43;;;17.50;97.20;;;;;;4977121;28;20518;-85
2023/04/22 12:05:59;;;;;;;3.80;3.30;;;17.50;96.70;;;;;;4980052;28;20847;-84
2023/04/22 12:08:38;;;;;;;3.43;3.13;;;17.50;96.70;;;;;;4996548;28;20794;-84
2023/04/22 12:11:06;;;;;;;4.33;3.77;;;17.50;96.70;;;;;;5000363;28;20455;-84
2023/04/22 12:13:35;;;;;;;4.00;2.50;;;17.60;96.70;;;;;;4979646;28;20872;-84
2023/04/22 12:16:03;;;;;;;3.30;3.00;;;17.60;96.60;;;;;;4978898;28;20469;-84
2023/04/22 12:18:37;;;;;;;3.83;3.17;;;17.70;96.70;;;;;;5018899;28;20531;-84
2023/04/22 12:21:05;;;;;;;3.97;3.10;;;17.70;96.70;;;;;;4992484;28;20446;-84
2023/04/22 12:23:44;;;;;;;4.13;3.03;;;17.70;96.70;;;;;;4994777;28;20545;-83
2023/04/22 12:26:16;;;;;;;3.53;3.20;;;17.70;96.70;;;;;;5006389;28;20783;-84
2023/04/22 12:28:48;;;;;;;3.93;2.93;;;17.80;96.70;;;;;;5030272;28;20434;-83
2023/04/22 12:31:20;;;;;;;3.70;3.30;;;17.80;96.70;;;;;;5013563;28;20733;-84
2023/04/22 12:33:46;;;;;;;3.03;2.83;;;17.80;96.60;;;;;;4998233;28;20508;-86
2023/04/22 12:36:12;;;;;;;3.90;3.60;;;17.90;96.70;;;;;;4994904;28;20471;-85
2023/04/22 12:38:41;;;;;;;5.93;3.43;;;17.90;96.60;;;;;;4975935;28;20425;-86
2023/04/22 12:41:07;;;;;;;4.00;3.60;;;17.90;96.60;;;;;;5007297;28;20446;-83
2023/04/22 12:43:38;;;;;;;3.80;3.40;;;18.00;96.60;;;;;;5013527;28;20199;-84
2023/04/22 12:46:05;;;;;;;3.60;3.30;;;18.00;96.50;;;;;;5014041;28;20535;-84
2023/04/22 12:48:32;;;;;;;3.97;3.67;;;18.00;96.40;;;;;;5014061;28;20454;-82
2023/04/22 12:51:02;;;;;;;3.97;3.60;;;18.00;96.40;;;;;;5003260;28;20440;-86
2023/04/22 12:53:28;;;;;;;6.00;3.57;;;18.10;96.50;;;;;;5010587;28;20431;-83
2023/04/22 12:55:57;;;;;;;5.77;4.00;;;18.10;96.50;;;;;;5006439;28;20490;-84
2023/04/22 12:58:23;;;;;;;8.07;5.03;;;18.10;96.50;;;;;;4998463;28;20864;-85
2023/04/22 13:00:52;;;;;;;6.53;3.87;;;18.20;96.60;;;;;;4994220;28;20452;-84